createdAt,value
2022-08-11T00:01:28.884Z,20.20
2022-08-11T00:04:01.261Z,20.10
2022-08-11T00:06:36.378Z,20.10
2022-08-11T00:09:11.594Z,20.00
2022-08-11T00:11:48.075Z,20.00
2022-08-11T00:14:36.746Z,20.00
2022-08-11T00:17:16.207Z,19.90
2022-08-11T00:20:13.923Z,19.90
2022-08-11T00:22:41.706Z,19.80
2022-08-11T00:25:15.467Z,19.80
2022-08-11T00:27:43.639Z,19.80
2022-08-11T00:30:13.437Z,19.70
2022-08-11T00:32:54.714Z,19.60
2022-08-11T00:35:53.962Z,19.60
2022-08-11T00:38:18.772Z,19.60
2022-08-11T00:41:11.367Z,19.50
2022-08-11T00:44:12.225Z,19.50
2022-08-11T00:47:15.509Z,19.40
2022-08-11T00:50:32.253Z,19.30
2022-08-11T00:53:26.170Z,19.30
2022-08-11T00:56:40.822Z,19.20
2022-08-11T00:59:34.126Z,19.20
2022-08-11T01:02:40.209Z,19.10
2022-08-11T01:05:43.018Z,19.10
2022-08-11T01:08:40.946Z,19.00
2022-08-11T01:11:55.695Z,19.00
2022-08-11T01:15:00.908Z,18.90
2022-08-11T01:18:17.353Z,18.80
2022-08-11T01:21:54.165Z,18.80
2022-08-11T01:25:06.493Z,18.70
2022-08-11T01:27:54.397Z,18.70
2022-08-11T01:31:37.109Z,18.60
2022-08-11T01:34:27.817Z,18.60
2022-08-11T01:37:33.008Z,18.50
2022-08-11T01:40:44.873Z,18.50
2022-08-11T01:44:22.438Z,18.50
2022-08-11T01:47:54.451Z,18.40
2022-08-11T01:50:42.625Z,18.40
2022-08-11T01:54:09.310Z,18.30
2022-08-11T01:57:00.216Z,18.30
2022-08-11T01:59:39.400Z,18.30
2022-08-11T02:02:49.990Z,18.20
2022-08-11T02:06:35.169Z,18.20
2022-08-11T02:10:22.161Z,18.10
2022-08-11T02:13:12.228Z,18.10
2022-08-11T02:15:56.750Z,18.10
2022-08-11T02:19:19.489Z,18.00
2022-08-11T02:22:21.493Z,18.00
2022-08-11T02:25:01.921Z,18.00
2022-08-11T02:27:45.451Z,17.90
2022-08-11T02:30:17.339Z,17.90
2022-08-11T02:33:25.363Z,17.90
2022-08-11T02:36:11.755Z,17.80
2022-08-11T02:38:55.967Z,17.80
2022-08-11T02:42:08.592Z,17.80
2022-08-11T02:45:12.723Z,17.70
2022-08-11T02:48:19.807Z,17.70
2022-08-11T02:51:23.564Z,17.60
2022-08-11T02:54:50.222Z,17.60
2022-08-11T02:57:30.780Z,17.60
2022-08-11T03:00:13.265Z,17.50
2022-08-11T03:02:55.615Z,17.50
2022-08-11T03:06:11.584Z,17.40
2022-08-11T03:08:56.582Z,17.40
2022-08-11T03:12:10.185Z,17.40
2022-08-11T03:15:14.254Z,17.40
2022-08-11T03:18:25.084Z,17.30
2022-08-11T03:21:16.050Z,17.30
2022-08-11T03:24:46.442Z,17.20
2022-08-11T03:27:44.584Z,17.20
2022-08-11T03:30:22.146Z,17.20
2022-08-11T03:33:32.616Z,17.10
2022-08-11T03:36:14.531Z,17.10
2022-08-11T03:39:01.067Z,17.10
2022-08-11T03:42:01.301Z,17.10
2022-08-11T03:45:17.577Z,17.00
2022-08-11T03:48:29.519Z,16.90
2022-08-11T03:51:23.443Z,16.90
2022-08-11T03:54:16.541Z,16.90
2022-08-11T03:57:39.241Z,16.80
2022-08-11T04:00:50.040Z,16.80
2022-08-11T04:03:52.848Z,16.80
2022-08-11T04:06:40.852Z,16.80
2022-08-11T04:09:49.832Z,16.70
2022-08-11T04:13:10.069Z,16.70
2022-08-11T04:16:15.648Z,16.60
2022-08-11T04:19:46.358Z,16.60
2022-08-11T04:22:27.875Z,16.60
2022-08-11T04:25:14.923Z,16.60
2022-08-11T04:28:29.000Z,16.60
2022-08-11T04:31:51.552Z,16.50
2022-08-11T04:34:44.626Z,16.50
2022-08-11T04:37:56.410Z,16.50
2022-08-11T04:40:35.316Z,16.50
2022-08-11T04:44:02.736Z,16.40
2022-08-11T04:48:03.973Z,16.40
2022-08-11T04:51:17.076Z,16.40
2022-08-11T04:54:19.339Z,16.40
2022-08-11T04:57:10.327Z,16.40
2022-08-11T05:00:36.437Z,16.40
2022-08-11T05:03:35.266Z,16.50
2022-08-11T05:06:43.916Z,16.50
2022-08-11T05:09:46.225Z,16.60
2022-08-11T05:12:40.749Z,16.80
2022-08-11T05:15:54.192Z,16.90
2022-08-11T05:18:44.322Z,17.00
2022-08-11T05:21:44.442Z,17.10
2022-08-11T05:24:41.676Z,17.20
2022-08-11T05:27:32.908Z,17.30
2022-08-11T05:30:25.913Z,17.30
2022-08-11T05:33:32.132Z,17.40
2022-08-11T05:36:25.068Z,17.50
2022-08-11T05:39:36.585Z,17.60
2022-08-11T05:42:30.376Z,17.60
2022-08-11T05:45:57.272Z,17.70
2022-08-11T05:48:41.086Z,17.80
2022-08-11T05:51:30.433Z,17.90
2022-08-11T05:54:28.314Z,18.00
2022-08-11T05:57:02.659Z,18.10
2022-08-11T05:59:31.727Z,18.20
2022-08-11T06:02:07.152Z,18.20
2022-08-11T06:04:35.234Z,18.30
2022-08-11T06:07:09.874Z,18.40
2022-08-11T06:09:51.342Z,18.50
2022-08-11T06:12:24.734Z,18.60
2022-08-11T06:15:01.768Z,18.70
2022-08-11T06:17:38.394Z,18.80
2022-08-11T06:20:12.334Z,18.90
2022-08-11T06:22:52.373Z,19.00
2022-08-11T06:25:21.192Z,19.20
2022-08-11T06:27:59.002Z,19.30
2022-08-11T06:30:46.567Z,19.40
2022-08-11T06:33:31.223Z,19.50
2022-08-11T06:36:16.558Z,19.70
2022-08-11T06:39:14.244Z,19.80
2022-08-11T06:42:06.950Z,20.00
2022-08-11T06:44:48.546Z,20.20
2022-08-11T06:47:18.198Z,20.30
2022-08-11T06:50:06.298Z,20.50
2022-08-11T06:52:37.502Z,20.70
2022-08-11T06:55:57.333Z,20.80
2022-08-11T06:58:50.943Z,21.00
2022-08-11T07:01:46.348Z,21.20
2022-08-11T07:04:35.650Z,21.40
2022-08-11T07:08:35.228Z,21.60
2022-08-11T07:11:39.478Z,21.90
2022-08-11T07:14:26.955Z,22.10
2022-08-11T07:16:55.051Z,22.30
2022-08-11T07:19:46.914Z,22.50
2022-08-11T07:22:34.228Z,22.70
2022-08-11T07:25:34.909Z,22.90
2022-08-11T07:28:31.396Z,23.10
2022-08-11T07:31:07.212Z,23.30
2022-08-11T07:34:06.917Z,23.50
2022-08-11T07:36:48.164Z,23.70
2022-08-11T07:39:44.281Z,23.90
2022-08-11T07:42:15.585Z,24.20
2022-08-11T07:45:05.139Z,24.40
2022-08-11T07:47:53.394Z,24.60
2022-08-11T07:50:39.521Z,24.80
2022-08-11T07:53:07.687Z,25.00
2022-08-11T07:55:50.253Z,25.20
2022-08-11T07:58:45.509Z,25.30
2022-08-11T08:01:44.509Z,25.50
2022-08-11T08:04:35.371Z,25.80
2022-08-11T08:07:24.110Z,25.90
2022-08-11T08:10:14.304Z,26.10
2022-08-11T08:13:02.308Z,26.30
2022-08-11T08:15:50.265Z,26.50
2022-08-11T08:18:27.033Z,26.70
2022-08-11T08:21:11.752Z,26.90
2022-08-11T08:23:42.031Z,27.00
2022-08-11T08:26:33.733Z,27.20
2022-08-11T08:29:33.755Z,27.30
2022-08-11T08:32:02.821Z,27.60
2022-08-11T08:34:32.402Z,27.70
2022-08-11T08:37:01.132Z,27.90
2022-08-11T08:39:28.495Z,28.00
2022-08-11T08:41:59.217Z,28.10
2022-08-11T08:44:38.385Z,28.30
2022-08-11T08:47:13.267Z,28.40
2022-08-11T08:49:49.255Z,28.60
2022-08-11T08:52:33.250Z,28.70
2022-08-11T08:55:07.380Z,28.90
2022-08-11T08:57:39.734Z,29.00
2022-08-11T09:00:12.702Z,29.10
2022-08-11T09:02:44.166Z,29.20
2022-08-11T09:05:16.784Z,29.40
2022-08-11T09:07:47.611Z,29.50
2022-08-11T09:10:18.861Z,29.60
2022-08-11T09:12:46.354Z,29.70
2022-08-11T09:15:15.224Z,29.90
2022-08-11T09:18:05.955Z,30.00
2022-08-11T09:20:37.020Z,30.10
2022-08-11T09:26:35.390Z,30.30
2022-08-11T09:29:04.577Z,30.50
2022-08-11T09:31:39.646Z,30.50
2022-08-11T09:34:10.236Z,30.60
2022-08-11T09:37:01.429Z,30.70
2022-08-11T09:39:49.280Z,30.80
2022-08-11T09:42:23.210Z,30.80
2022-08-11T09:44:53.290Z,30.90
2022-08-11T09:47:29.655Z,30.90
2022-08-11T09:50:01.446Z,31.00
2022-08-11T09:52:38.758Z,31.10
2022-08-11T09:55:11.390Z,31.20
2022-08-11T09:58:05.611Z,31.20
2022-08-11T10:00:37.902Z,31.30
2022-08-11T10:03:17.929Z,31.40
2022-08-11T10:06:08.345Z,31.50
2022-08-11T10:08:40.603Z,31.50
2022-08-11T10:11:13.837Z,31.60
2022-08-11T10:14:33.224Z,31.70
2022-08-11T10:16:52.964Z,31.80
2022-08-11T10:19:22.046Z,31.90
2022-08-11T10:22:11.964Z,31.90
2022-08-11T10:25:01.821Z,32.00
2022-08-11T10:27:43.154Z,32.10
2022-08-11T10:30:35.067Z,32.20
2022-08-11T10:33:37.590Z,32.20
2022-08-11T10:36:16.266Z,32.20
2022-08-11T10:38:46.893Z,32.30
2022-08-11T10:41:33.340Z,32.40
2022-08-11T10:44:04.035Z,32.50
2022-08-11T10:46:50.708Z,32.50
2022-08-11T10:49:20.416Z,32.60
2022-08-11T10:52:06.821Z,32.60
2022-08-11T10:54:54.738Z,32.70
2022-08-11T10:57:41.682Z,32.70
2022-08-11T11:00:15.095Z,32.80
2022-08-11T11:02:45.115Z,32.80
2022-08-11T11:05:33.842Z,32.90
2022-08-11T11:08:34.091Z,33.00
2022-08-11T11:11:04.038Z,33.10
2022-08-11T11:13:55.017Z,33.10
2022-08-11T11:16:42.078Z,33.20
2022-08-11T11:19:11.621Z,33.30
2022-08-11T11:21:43.139Z,33.40
2022-08-11T11:24:45.891Z,33.40
2022-08-11T11:27:46.620Z,33.40
2022-08-11T11:30:17.167Z,33.50
2022-08-11T11:33:13.205Z,33.50
2022-08-11T11:35:58.906Z,33.60
2022-08-11T11:38:27.197Z,33.70
2022-08-11T11:41:13.609Z,33.80
2022-08-11T11:43:42.008Z,33.80
2022-08-11T11:46:10.634Z,33.90
2022-08-11T11:48:38.031Z,33.90
2022-08-11T11:51:05.814Z,34.00
2022-08-11T11:53:34.855Z,34.00
2022-08-11T11:56:03.463Z,34.10
2022-08-11T11:58:49.317Z,34.10
2022-08-11T12:01:16.560Z,34.20
2022-08-11T12:03:50.792Z,34.20
2022-08-11T12:06:22.007Z,34.30
2022-08-11T12:08:53.015Z,34.40
2022-08-11T12:11:43.554Z,34.40
2022-08-11T12:14:12.500Z,34.50
2022-08-11T12:16:41.841Z,34.60
2022-08-11T12:19:24.476Z,34.50
2022-08-11T12:22:14.305Z,34.60
2022-08-11T12:25:01.112Z,34.60
2022-08-11T12:27:30.698Z,34.70
2022-08-11T12:30:02.900Z,34.70
2022-08-11T12:32:32.561Z,34.70
2022-08-11T12:35:01.396Z,34.70
2022-08-11T12:37:45.665Z,34.70
2022-08-11T12:41:11.743Z,34.70
2022-08-11T12:43:57.225Z,34.80
2022-08-11T12:46:32.169Z,34.80
2022-08-11T12:49:28.397Z,34.80
2022-08-11T12:52:00.700Z,34.90
2022-08-11T12:54:49.656Z,35.00
2022-08-11T12:57:58.162Z,35.00
2022-08-11T13:00:46.046Z,35.10
2022-08-11T13:03:33.054Z,35.10
2022-08-11T13:06:05.490Z,35.20
2022-08-11T13:08:37.678Z,35.20
2022-08-11T13:11:25.582Z,35.30
2022-08-11T13:14:15.204Z,35.30
2022-08-11T13:17:04.574Z,35.30
2022-08-11T13:19:34.618Z,35.40
2022-08-11T13:22:07.197Z,35.40
2022-08-11T13:24:39.673Z,35.40
2022-08-11T13:27:07.461Z,35.40
2022-08-11T13:29:36.081Z,35.50
2022-08-11T13:32:03.997Z,35.50
2022-08-11T13:34:32.524Z,35.50
2022-08-11T13:37:05.190Z,35.50
2022-08-11T13:39:35.279Z,35.50
2022-08-11T13:42:05.390Z,35.50
2022-08-11T13:44:38.030Z,35.50
2022-08-11T13:47:08.660Z,35.50
2022-08-11T13:49:40.288Z,35.60
2022-08-11T13:52:13.573Z,35.60
2022-08-11T13:54:42.572Z,35.60
2022-08-11T13:58:06.294Z,35.70
2022-08-11T14:00:13.238Z,35.70
2022-08-11T14:02:53.861Z,35.70
2022-08-11T14:05:29.338Z,35.70
2022-08-11T14:08:09.187Z,35.70
2022-08-11T14:12:21.883Z,35.70
2022-08-11T14:14:13.666Z,35.80
2022-08-11T14:16:44.875Z,35.80
2022-08-11T14:19:15.094Z,35.80
2022-08-11T14:22:07.267Z,35.90
2022-08-11T14:24:41.744Z,35.90
2022-08-11T14:28:30.021Z,35.90
2022-08-11T14:30:00.761Z,36.00
2022-08-11T14:32:28.118Z,36.00
2022-08-11T14:34:56.446Z,36.00
2022-08-11T14:37:26.829Z,36.00
2022-08-11T14:40:03.759Z,36.10
2022-08-11T14:42:57.720Z,36.10
2022-08-11T14:45:54.149Z,36.10
2022-08-11T14:48:23.454Z,36.10
2022-08-11T14:50:51.616Z,36.00
2022-08-11T14:53:23.076Z,36.00
2022-08-11T14:56:10.452Z,36.00
2022-08-11T14:58:39.969Z,36.00
2022-08-11T15:01:27.266Z,36.00
2022-08-11T15:04:33.959Z,36.00
2022-08-11T15:06:43.535Z,36.00
2022-08-11T15:09:10.565Z,36.00
2022-08-11T15:11:57.091Z,36.00
2022-08-11T15:14:43.989Z,36.00
2022-08-11T15:17:12.959Z,36.00
2022-08-11T15:20:02.562Z,36.00
2022-08-11T15:22:48.269Z,36.00
2022-08-11T15:25:15.974Z,36.00
2022-08-11T15:28:04.428Z,36.00
2022-08-11T15:30:50.875Z,36.00
2022-08-11T15:33:40.336Z,35.90
2022-08-11T15:36:29.426Z,35.90
2022-08-11T15:39:19.489Z,35.80
2022-08-11T15:42:15.859Z,35.80
2022-08-11T15:45:08.273Z,35.80
2022-08-11T15:47:57.507Z,35.70
2022-08-11T15:50:38.765Z,35.70
2022-08-11T15:53:16.486Z,35.70
2022-08-11T15:55:45.080Z,35.70
2022-08-11T15:58:32.525Z,35.60
2022-08-11T16:01:21.041Z,35.60
2022-08-11T16:04:16.922Z,35.50
2022-08-11T16:07:11.542Z,35.50
2022-08-11T16:09:54.105Z,35.40
2022-08-11T16:12:32.714Z,35.40
2022-08-11T16:15:27.677Z,35.40
2022-08-11T16:18:03.249Z,35.30
2022-08-11T16:20:33.301Z,35.30
2022-08-11T16:23:05.676Z,35.30
2022-08-11T16:27:02.910Z,35.30
2022-08-11T16:28:25.295Z,35.20
2022-08-11T16:30:55.451Z,35.10
2022-08-11T16:33:50.040Z,35.10
2022-08-11T16:36:34.415Z,35.00
2022-08-11T16:39:05.649Z,34.90
2022-08-11T16:41:55.054Z,34.80
2022-08-11T16:44:43.753Z,34.80
2022-08-11T16:47:16.440Z,34.70
2022-08-11T16:49:54.244Z,34.60
2022-08-11T16:52:23.748Z,34.60
2022-08-11T16:54:52.841Z,34.60
2022-08-11T16:57:45.007Z,34.50
2022-08-11T17:00:16.508Z,34.40
2022-08-11T17:03:15.478Z,34.30
2022-08-11T17:06:09.910Z,34.30
2022-08-11T17:09:04.941Z,34.20
2022-08-11T17:12:11.767Z,34.10
2022-08-11T17:14:48.320Z,34.10
2022-08-11T17:17:23.876Z,34.00
2022-08-11T17:20:38.343Z,33.90
2022-08-11T17:23:04.283Z,33.90
2022-08-11T17:25:59.908Z,33.80
2022-08-11T17:28:24.509Z,33.80
2022-08-11T17:31:21.885Z,33.70
2022-08-11T17:34:10.285Z,33.60
2022-08-11T17:36:44.577Z,33.60
2022-08-11T17:39:14.365Z,33.50
2022-08-11T17:42:02.571Z,33.50
2022-08-11T17:44:50.730Z,33.40
2022-08-11T17:47:38.671Z,33.30
2022-08-11T17:50:15.937Z,33.30
2022-08-11T17:53:06.052Z,33.20
2022-08-11T17:55:55.898Z,33.10
2022-08-11T17:58:45.336Z,33.10
2022-08-11T18:01:14.352Z,33.00
2022-08-11T18:03:56.387Z,32.90
2022-08-11T18:06:34.460Z,32.80
2022-08-11T18:09:27.935Z,32.70
2022-08-11T18:12:15.026Z,32.70
2022-08-11T18:15:10.039Z,32.60
2022-08-11T18:17:56.673Z,32.50
2022-08-11T18:20:43.736Z,32.40
2022-08-11T18:23:46.041Z,32.20
2022-08-11T18:26:37.911Z,32.10
2022-08-11T18:29:27.178Z,32.00
2022-08-11T18:32:21.823Z,31.90
2022-08-11T18:35:12.297Z,31.70
2022-08-11T18:38:05.703Z,31.50
2022-08-11T18:40:54.503Z,31.40
2022-08-11T18:43:44.045Z,31.20
2022-08-11T18:46:36.816Z,31.10
2022-08-11T18:50:02.306Z,30.90
2022-08-11T18:52:38.318Z,30.70
2022-08-11T18:55:34.893Z,30.60
2022-08-11T18:58:28.814Z,30.40
2022-08-11T19:01:19.758Z,30.20
2022-08-11T19:04:11.193Z,30.10
2022-08-11T19:07:06.302Z,30.00
2022-08-11T19:09:58.229Z,29.80
2022-08-11T19:12:48.302Z,29.60
2022-08-11T19:15:36.342Z,29.50
2022-08-11T19:18:23.138Z,29.40
2022-08-11T19:21:11.859Z,29.20
2022-08-11T19:24:08.785Z,29.00
2022-08-11T19:26:56.384Z,29.00
2022-08-11T19:30:12.036Z,28.80
2022-08-11T19:32:51.786Z,28.70
2022-08-11T19:35:39.161Z,28.50
2022-08-11T19:38:26.700Z,28.40
2022-08-11T19:41:14.119Z,28.30
2022-08-11T19:44:05.545Z,28.20
2022-08-11T19:46:54.481Z,28.00
2022-08-11T19:49:42.355Z,27.90
2022-08-11T19:52:28.694Z,27.80
2022-08-11T19:55:15.765Z,27.70
2022-08-11T19:58:02.559Z,27.50
2022-08-11T20:00:48.896Z,27.40
2022-08-11T20:03:35.393Z,27.30
2022-08-11T20:06:25.667Z,27.20
2022-08-11T20:09:18.480Z,27.00
2022-08-11T20:12:09.098Z,26.90
2022-08-11T20:14:59.262Z,26.80
2022-08-11T20:17:48.081Z,26.60
2022-08-11T20:20:36.125Z,26.60
2022-08-11T20:23:24.920Z,26.40
2022-08-11T20:26:30.307Z,26.30
2022-08-11T20:29:19.469Z,26.20
2022-08-11T20:32:09.771Z,26.10
2022-08-11T20:34:58.497Z,26.00
2022-08-11T20:37:50.853Z,25.90
2022-08-11T20:40:44.017Z,25.80
2022-08-11T20:44:08.175Z,25.70
2022-08-11T20:46:44.287Z,25.60
2022-08-11T20:49:40.959Z,25.50
2022-08-11T20:52:37.700Z,25.40
2022-08-11T20:55:51.634Z,25.30
2022-08-11T20:59:04.059Z,25.20
2022-08-11T21:01:44.105Z,25.10
2022-08-11T21:04:30.530Z,25.00
2022-08-11T21:07:26.132Z,24.90
2022-08-11T21:10:23.486Z,24.80
2022-08-11T21:13:25.852Z,24.70
2022-08-11T21:16:27.320Z,24.50
2022-08-11T21:20:00.646Z,24.40
2022-08-11T21:23:10.153Z,24.30
2022-08-11T21:26:09.662Z,24.20
2022-08-11T21:28:59.517Z,24.10
2022-08-11T21:31:50.131Z,24.00
2022-08-11T21:34:40.159Z,23.90
2022-08-11T21:37:27.790Z,23.90
2022-08-11T21:40:17.398Z,23.80
2022-08-11T21:43:06.958Z,23.70
2022-08-11T21:45:56.656Z,23.60
2022-08-11T21:48:45.418Z,23.50
2022-08-11T21:51:31.224Z,23.40
2022-08-11T21:54:18.894Z,23.40
2022-08-11T21:57:09.338Z,23.30
2022-08-11T22:00:10.719Z,23.20
2022-08-11T22:03:03.830Z,23.10
2022-08-11T22:05:52.388Z,23.00
2022-08-11T22:08:38.245Z,22.90
2022-08-11T22:11:32.185Z,22.80
2022-08-11T22:14:22.616Z,22.80
2022-08-11T22:17:11.604Z,22.70
2022-08-11T22:20:01.097Z,22.60
2022-08-11T22:22:53.494Z,22.50
2022-08-11T22:25:53.779Z,22.40
2022-08-11T22:28:43.800Z,22.30
2022-08-11T22:31:33.284Z,22.30
2022-08-11T22:34:20.368Z,22.20
2022-08-11T22:37:08.796Z,22.10
2022-08-11T22:40:02.266Z,22.00
2022-08-11T22:42:51.464Z,22.00
2022-08-11T22:45:38.924Z,21.90
2022-08-11T22:48:26.881Z,21.90
2022-08-11T22:51:13.961Z,21.80
2022-08-11T22:54:01.646Z,21.70
2022-08-11T22:56:50.127Z,21.70
2022-08-11T22:59:38.016Z,21.60
2022-08-11T23:02:25.919Z,21.50
2022-08-11T23:05:13.091Z,21.50
2022-08-11T23:08:01.122Z,21.40
2022-08-11T23:10:47.319Z,21.40
2022-08-11T23:13:34.098Z,21.30
2022-08-11T23:16:20.640Z,21.20
2022-08-11T23:19:07.780Z,21.10
2022-08-11T23:21:54.591Z,21.10
2022-08-11T23:24:46.252Z,21.00
2022-08-11T23:27:33.875Z,21.00
2022-08-11T23:30:20.903Z,20.90
2022-08-11T23:33:18.407Z,20.80
2022-08-11T23:36:09.244Z,20.80
2022-08-11T23:38:55.632Z,20.70
2022-08-11T23:41:41.457Z,20.70
2022-08-11T23:44:28.227Z,20.60
2022-08-11T23:47:18.513Z,20.50
2022-08-11T23:50:07.239Z,20.50
2022-08-11T23:52:54.026Z,20.40
2022-08-11T23:55:40.443Z,20.40
2022-08-11T23:58:27.115Z,20.30
